Time;durP1;ratioP1;P1;durP2;ratioP2;P2;SDS_P1;SDS_P2;PMS_P1;PMS_P2;Temp;Humidity;BMP_temperature;BMP_pressure;BME280_temperature;BME280_humidity;BME280_pressure;Samples;Min_cycle;Max_cycle;Signal;HPM_P1;HPM_P2
2021/06/27 00:01:21;;;;;;;14.27;2.83;;;;;;;20.50;64.98;99358.06;5111231;28;20031;-72
2021/06/27 00:03:47;;;;;;;13.93;2.90;;;;;;;20.56;63.25;99359.31;5113748;28;20377;-74
2021/06/27 00:06:12;;;;;;;4.85;2.33;;;;;;;20.62;62.33;99354.81;5113262;28;20033;-73
2021/06/27 00:08:38;;;;;;;12.75;2.53;;;;;;;20.71;62.70;99353.59;5113382;27;20533;-72
2021/06/27 00:11:06;;;;;;;12.88;2.83;;;;;;;20.60;64.51;99371.47;5107321;28;20492;-74
2021/06/27 00:13:33;;;;;;;8.40;2.80;;;;;;;20.72;64.48;99361.75;5109623;28;20032;-74
2021/06/27 00:15:59;;;;;;;10.63;2.55;;;;;;;20.87;63.66;99356.06;5113210;28;20024;-72
2021/06/27 00:18:27;;;;;;;5.28;2.33;;;;;;;20.80;63.86;99351.16;5106600;28;20031;-72
2021/06/27 00:20:58;;;;;;;8.32;2.60;;;;;;;20.96;63.51;99338.56;5111786;28;20038;-74
2021/06/27 00:23:26;;;;;;;7.18;3.03;;;;;;;21.02;63.07;99336.94;5113040;28;20038;-74
2021/06/27 00:25:53;;;;;;;11.65;3.90;;;;;;;20.98;63.09;99331.28;5105287;28;20033;-74
2021/06/27 00:28:20;;;;;;;5.72;2.80;;;;;;;20.95;61.26;99329.25;5110574;28;20400;-74
2021/06/27 00:30:46;;;;;;;15.48;2.95;;;;;;;20.95;62.21;99325.59;5111483;28;20028;-74
2021/06/27 00:33:12;;;;;;;9.45;2.65;;;;;;;21.12;60.63;99324.75;5111534;28;20035;-72
2021/06/27 00:35:38;;;;;;;12.65;2.60;;;;;;;21.14;60.49;99319.44;5110566;27;20038;-72
2021/06/27 00:38:05;;;;;;;8.40;2.45;;;;;;;20.99;60.76;99312.16;5116864;27;20251;-74
2021/06/27 00:40:31;;;;;;;9.15;2.88;;;;;;;21.04;60.68;99320.28;5110370;28;20085;-73
2021/06/27 00:42:57;;;;;;;13.93;3.55;;;;;;;20.89;60.95;99314.66;5112668;28;20027;-72
2021/06/27 00:45:25;;;;;;;8.18;2.70;;;;;;;20.86;61.45;99315.44;5108340;28;20062;-72
2021/06/27 00:47:51;;;;;;;10.40;3.47;;;;;;;21.00;61.57;99306.06;5097875;28;20406;-74
2021/06/27 00:50:23;;;;;;;7.68;3.08;;;;;;;21.00;61.16;99296.75;5098402;28;20204;-74
2021/06/27 00:52:50;;;;;;;7.60;2.78;;;;;;;20.88;61.79;99293.13;5112691;28;20081;-74
2021/06/27 00:55:17;;;;;;;9.20;3.38;;;;;;;20.80;61.25;99297.16;5110633;27;20118;-73
2021/06/27 00:57:44;;;;;;;10.02;4.38;;;;;;;20.95;60.34;99302.84;5107858;28;20022;-74
2021/06/27 01:00:19;;;;;;;5.78;2.38;;;;;;;20.80;61.08;99311.38;5104796;28;20477;-75
2021/06/27 01:02:45;;;;;;;14.43;3.47;;;;;;;20.83;62.83;99315.47;5102895;28;20106;-75
2021/06/27 01:05:13;;;;;;;10.25;2.80;;;;;;;20.86;63.10;99323.19;5106985;28;20078;-70
2021/06/27 01:07:39;;;;;;;8.88;2.88;;;;;;;20.91;62.62;99322.75;5110880;28;20489;-72
2021/06/27 01:10:05;;;;;;;8.07;2.95;;;;;;;20.89;63.38;99313.81;5112614;28;20047;-75
2021/06/27 01:12:31;;;;;;;9.77;3.60;;;;;;;20.89;63.87;99316.66;5109595;28;20504;-72
2021/06/27 01:14:59;;;;;;;20.30;3.55;;;;;;;21.10;62.01;99315.00;5120468;27;20042;-74
2021/06/27 01:17:25;;;;;;;10.93;3.97;;;;;;;20.93;64.17;99314.63;5111872;28;20028;-72
2021/06/27 01:19:51;;;;;;;9.95;4.13;;;;;;;20.74;64.30;99318.69;5112557;28;20024;-74
2021/06/27 01:22:16;;;;;;;23.33;4.75;;;;;;;20.62;64.80;99312.22;5107775;27;20023;-74
2021/06/27 01:24:41;;;;;;;14.93;4.60;;;;;;;20.36;66.11;99316.31;5107612;28;20023;-73
2021/06/27 01:27:07;;;;;;;11.90;4.25;;;;;;;20.52;65.78;99324.41;5106511;28;20061;-73
2021/06/27 01:29:33;;;;;;;13.45;4.57;;;;;;;20.67;64.91;99318.72;5103959;28;20042;-73
2021/06/27 01:31:58;;;;;;;10.43;3.45;;;;;;;21.06;62.77;99317.84;5109641;27;20027;-74
2021/06/27 01:34:24;;;;;;;12.93;3.15;;;;;;;20.95;62.67;99317.06;5097496;28;20059;-73
2021/06/27 01:36:50;;;;;;;9.77;2.95;;;;;;;20.79;61.47;99326.81;5091517;28;20032;-74
2021/06/27 01:39:15;;;;;;;6.43;2.25;;;;;;;20.92;61.21;99330.06;5101048;28;20477;-73
2021/06/27 01:41:51;;;;;;;11.18;3.30;;;;;;;20.65;63.34;99333.31;5101824;28;20023;-72
2021/06/27 01:44:17;;;;;;;8.27;2.50;;;;;;;20.73;62.12;99332.09;5110327;28;20455;-73
2021/06/27 01:46:43;;;;;;;11.65;2.85;;;;;;;20.71;62.03;99326.03;5111584;28;20137;-73
2021/06/27 01:49:11;;;;;;;10.65;3.30;;;;;;;20.62;61.49;99317.88;5107563;27;20074;-72
2021/06/27 01:51:37;;;;;;;16.30;3.05;;;;;;;20.43;62.06;99324.00;5105972;28;20024;-74
2021/06/27 01:54:04;;;;;;;13.02;4.10;;;;;;;20.43;62.70;99318.31;5106195;28;20477;-72
2021/06/27 01:56:29;;;;;;;15.40;3.75;;;;;;;20.47;63.45;99316.28;5091997;28;20020;-75
2021/06/27 01:58:57;;;;;;;12.77;3.83;;;;;;;20.26;64.19;99312.22;5096596;27;20076;-72
2021/06/27 02:01:41;;;;;;;14.35;3.42;;;;;;;20.27;64.33;99298.84;5100299;28;20053;-72
2021/06/27 02:04:08;;;;;;;12.00;4.07;;;;;;;20.19;64.57;99310.19;5097525;28;20431;-74
2021/06/27 02:06:40;;;;;;;23.10;4.50;;;;;;;19.83;65.42;99310.13;5094416;28;20024;-72
2021/06/27 02:09:09;;;;;;;17.38;4.25;;;;;;;19.78;65.59;99302.81;5091240;28;20036;-74
2021/06/27 02:11:34;;;;;;;24.15;3.40;;;;;;;19.39;66.90;99308.41;5091915;28;20028;-72
2021/06/27 02:14:01;;;;;;;27.75;4.00;;;;;;;19.34;67.62;99313.22;5089454;28;20120;-72
2021/06/27 02:16:26;;;;;;;29.88;3.90;;;;;;;19.34;67.63;99320.94;5093959;28;20028;-74
2021/06/27 02:18:53;;;;;;;15.15;3.33;;;;;;;19.31;68.02;99304.72;5102437;28;20028;-72
2021/06/27 02:21:26;;;;;;;24.13;3.85;;;;;;;19.20;68.06;99302.66;5097505;28;20241;-73
2021/06/27 02:23:52;;;;;;;28.75;5.45;;;;;;;19.10;68.78;99302.59;5101198;28;20488;-74
2021/06/27 02:26:18;;;;;;;23.77;5.25;;;;;;;19.18;68.46;99302.22;5106159;28;20532;-72
2021/06/27 02:28:45;;;;;;;19.85;4.38;;;;;;;19.17;68.92;99306.25;5096524;28;20460;-73
2021/06/27 02:31:10;;;;;;;21.67;5.07;;;;;;;19.21;68.78;99324.13;5089432;28;20032;-74
2021/06/27 02:33:37;;;;;;;13.00;4.80;;;;;;;19.24;68.69;99327.38;5099627;28;20051;-72
2021/06/27 02:36:03;;;;;;;17.30;5.03;;;;;;;19.16;69.16;99327.31;5099211;28;20131;-74
2021/06/27 02:38:29;;;;;;;17.30;5.40;;;;;;;19.34;68.34;99326.59;5098838;28;20084;-74
2021/06/27 02:40:55;;;;;;;17.85;4.75;;;;;;;19.39;68.24;99322.56;5106501;28;20035;-74
2021/06/27 02:43:21;;;;;;;17.73;5.90;;;;;;;19.38;67.79;99327.41;5106916;28;20069;-72
2021/06/27 02:45:47;;;;;;;18.10;5.70;;;;;;;19.36;68.43;99330.66;5108491;28;20032;-72
2021/06/27 02:48:13;;;;;;;16.73;4.95;;;;;;;19.38;68.84;99327.41;5109114;28;20035;-73
2021/06/27 02:50:40;;;;;;;22.08;5.15;;;;;;;19.47;68.30;99329.88;5110082;28;20394;-73
2021/06/27 02:53:07;;;;;;;20.20;5.60;;;;;;;19.71;67.28;99330.34;5101877;28;20410;-72
2021/06/27 02:55:32;;;;;;;21.75;5.18;;;;;;;19.71;66.90;99328.34;5102977;28;20103;-72
2021/06/27 02:57:58;;;;;;;20.52;4.03;;;;;;;19.80;66.87;99327.16;5102852;28;20107;-72
2021/06/27 03:00:24;;;;;;;11.70;4.20;;;;;;;19.73;67.17;99319.41;5100782;28;20089;-74
2021/06/27 03:02:50;;;;;;;8.48;4.00;;;;;;;19.92;66.52;99323.94;5107103;28;20024;-74
2021/06/27 03:05:16;;;;;;;12.43;3.50;;;;;;;19.94;66.12;99326.41;5088731;28;20123;-74
2021/06/27 03:07:43;;;;;;;11.15;3.47;;;;;;;20.05;65.46;99313.03;5090179;28;20024;-74
2021/06/27 03:10:14;;;;;;;9.55;3.22;;;;;;;20.11;65.45;99313.44;5096079;28;20545;-74
2021/06/27 03:12:44;;;;;;;16.77;4.38;;;;;;;20.13;65.22;99311.84;5107502;28;20027;-74
2021/06/27 03:15:11;;;;;;;9.55;2.60;;;;;;;20.17;64.45;99309.00;5093840;28;20043;-74
2021/06/27 03:17:37;;;;;;;21.45;3.65;;;;;;;20.20;64.27;99322.38;5109487;28;20028;-73
2021/06/27 03:20:05;;;;;;;10.73;3.03;;;;;;;20.11;64.04;99322.78;5098938;28;20141;-73
2021/06/27 03:22:31;;;;;;;16.90;3.38;;;;;;;20.19;63.67;99324.38;5090505;28;20506;-74
2021/06/27 03:24:56;;;;;;;11.20;3.17;;;;;;;20.05;65.08;99321.53;5104651;28;20140;-73
2021/06/27 03:27:22;;;;;;;9.13;2.95;;;;;;;19.93;65.54;99311.41;5098410;28;20039;-74
2021/06/27 03:29:48;;;;;;;9.85;2.42;;;;;;;19.91;65.74;99314.59;5106213;28;20495;-74
2021/06/27 03:32:14;;;;;;;7.93;2.42;;;;;;;20.24;64.93;99319.53;5095320;28;20036;-77
2021/06/27 03:34:39;;;;;;;9.55;3.28;;;;;;;20.36;64.57;99315.47;5088624;28;20059;-71
2021/06/27 03:37:05;;;;;;;13.30;3.22;;;;;;;20.42;63.65;99319.53;5096352;28;20404;-72
2021/06/27 03:39:31;;;;;;;11.40;2.25;;;;;;;20.39;63.39;99318.31;5102788;28;20023;-76
2021/06/27 03:41:56;;;;;;;15.82;3.13;;;;;;;20.40;63.72;99319.16;5109036;28;20024;-70
2021/06/27 03:44:24;;;;;;;11.00;3.10;;;;;;;20.42;63.15;99320.34;5109955;28;20642;-71
2021/06/27 03:46:50;;;;;;;15.35;3.10;;;;;;;20.45;62.32;99313.03;5109780;27;20050;-76
2021/06/27 03:49:16;;;;;;;18.17;4.10;;;;;;;20.56;62.04;99302.50;5113987;28;20038;-73
2021/06/27 03:51:41;;;;;;;17.88;3.58;;;;;;;20.65;62.08;99307.75;5103958;28;20016;-74
2021/06/27 03:54:07;;;;;;;9.90;4.28;;;;;;;20.55;62.73;99302.88;5103451;28;20027;-77
2021/06/27 03:56:33;;;;;;;13.43;4.00;;;;;;;20.48;63.53;99307.38;5105407;27;20509;-71
2021/06/27 03:58:59;;;;;;;15.15;4.78;;;;;;;20.54;62.95;99304.94;5098982;28;20036;-77
2021/06/27 04:01:24;;;;;;;12.25;3.90;;;;;;;20.48;63.11;99300.88;5103055;28;20024;-71
2021/06/27 04:03:49;;;;;;;20.10;4.28;;;;;;;20.38;63.45;99301.69;5098962;28;20070;-71
2021/06/27 04:06:15;;;;;;;18.98;4.03;;;;;;;20.50;63.70;99309.78;5103823;28;20036;-72
2021/06/27 04:08:41;;;;;;;15.18;4.57;;;;;;;20.28;64.67;99309.81;5102422;28;20063;-71
2021/06/27 04:11:07;;;;;;;16.27;4.85;;;;;;;20.29;65.25;99319.97;5119143;27;20049;-71
2021/06/27 04:13:34;;;;;;;20.10;5.43;;;;;;;20.16;65.46;99318.72;5105393;27;20035;-71
2021/06/27 04:16:00;;;;;;;18.33;4.35;;;;;;;20.10;66.34;99314.66;5101859;28;20027;-73
2021/06/27 04:18:26;;;;;;;26.75;5.82;;;;;;;19.96;67.01;99316.28;5104599;28;20032;-71
2021/06/27 04:20:53;;;;;;;13.77;4.95;;;;;;;19.74;68.38;99321.88;5107887;28;20108;-72
2021/06/27 04:23:19;;;;;;;12.77;5.07;;;;;;;19.69;69.53;99325.09;5095034;28;20040;-72
2021/06/27 04:25:44;;;;;;;16.55;4.20;;;;;;;19.71;69.21;99322.69;5098941;27;20397;-72
2021/06/27 04:28:10;;;;;;;15.45;3.83;;;;;;;19.73;69.85;99328.75;5102343;28;20028;-72
2021/06/27 04:30:36;;;;;;;26.02;4.95;;;;;;;19.78;69.85;99319.84;5090822;28;20076;-71
2021/06/27 04:33:03;;;;;;;15.85;4.32;;;;;;;19.93;68.76;99317.09;5098051;28;20083;-73
2021/06/27 04:35:29;;;;;;;11.18;3.92;;;;;;;20.06;68.75;99324.00;5105367;28;20044;-73
2021/06/27 04:37:54;;;;;;;12.43;4.68;;;;;;;20.15;68.23;99314.25;5091059;28;20065;-71
2021/06/27 04:40:20;;;;;;;12.50;3.95;;;;;;;20.17;68.18;99311.84;5101669;28;20065;-71
2021/06/27 04:42:45;;;;;;;16.42;3.92;;;;;;;20.30;67.89;99313.06;5108608;27;20088;-71
2021/06/27 04:45:11;;;;;;;11.93;4.15;;;;;;;20.31;67.82;99314.69;5108920;28;20043;-71
2021/06/27 04:47:39;;;;;;;15.65;4.07;;;;;;;20.43;67.07;99309.81;5096850;28;20016;-71
2021/06/27 04:50:05;;;;;;;16.67;4.55;;;;;;;20.58;66.31;99308.56;5112965;28;20489;-72
2021/06/27 04:52:34;;;;;;;11.75;3.47;;;;;;;20.71;64.75;99311.81;5103023;28;20024;-73
2021/06/27 04:55:01;;;;;;;13.90;3.75;;;;;;;20.72;64.64;99304.91;5100058;28;20060;-73
2021/06/27 04:57:26;;;;;;;13.27;3.50;;;;;;;20.83;64.63;99304.09;5099596;28;20539;-72
2021/06/27 04:59:52;;;;;;;17.63;3.70;;;;;;;20.90;65.12;99307.75;5101665;28;20028;-72
2021/06/27 05:02:17;;;;;;;6.25;2.90;;;;;;;20.96;65.53;99304.47;5106250;28;20028;-73
2021/06/27 05:04:43;;;;;;;17.75;5.00;;;;;;;21.11;65.15;99308.88;5100952;28;20063;-71
2021/06/27 05:07:08;;;;;;;14.73;4.00;;;;;;;21.15;65.64;99304.00;5090896;28;20028;-73
2021/06/27 05:09:34;;;;;;;13.88;4.20;;;;;;;21.15;65.62;99315.38;5098838;28;20485;-73
2021/06/27 05:11:59;;;;;;;7.25;2.97;;;;;;;21.24;64.39;99319.84;5105054;28;20051;-74
2021/06/27 05:14:25;;;;;;;15.57;3.85;;;;;;;21.35;64.11;99314.09;5111818;28;20180;-73
2021/06/27 05:16:50;;;;;;;16.98;3.67;;;;;;;21.40;63.99;99317.31;5095751;28;20084;-74
2021/06/27 05:19:15;;;;;;;12.27;4.63;;;;;;;21.48;63.47;99320.09;5109857;28;20036;-73
2021/06/27 05:21:41;;;;;;;19.83;5.43;;;;;;;21.57;62.68;99321.31;5105797;28;20030;-73
2021/06/27 05:24:07;;;;;;;23.02;4.50;;;;;;;21.56;62.69;99325.38;5111674;28;20040;-72
2021/06/27 05:26:32;;;;;;;12.43;3.85;;;;;;;21.57;62.19;99327.00;5111368;28;20057;-73
2021/06/27 05:28:57;;;;;;;11.50;3.83;;;;;;;21.72;62.91;99327.75;5107167;27;20028;-72
2021/06/27 05:31:23;;;;;;;11.52;4.30;;;;;;;21.81;62.96;99332.16;5100019;28;20520;-71
2021/06/27 05:33:48;;;;;;;13.40;3.85;;;;;;;21.79;60.81;99326.91;5092901;28;20036;-71
2021/06/27 05:36:14;;;;;;;15.15;3.78;;;;;;;21.83;61.44;99329.72;5095227;28;20031;-74
2021/06/27 05:38:40;;;;;;;12.23;3.55;;;;;;;21.92;59.65;99327.22;5101412;27;20554;-72
2021/06/27 05:41:06;;;;;;;13.77;4.15;;;;;;;22.14;60.01;99321.38;5110891;28;20038;-72
2021/06/27 05:43:31;;;;;;;14.95;4.07;;;;;;;22.26;60.73;99325.75;5111791;28;20031;-72
2021/06/27 05:45:57;;;;;;;10.73;3.28;;;;;;;22.35;60.13;99328.16;5111445;28;20412;-72
2021/06/27 05:48:22;;;;;;;18.45;4.20;;;;;;;22.36;59.68;99327.72;5107350;27;20027;-71
2021/06/27 05:50:48;;;;;;;15.60;3.78;;;;;;;22.54;58.35;99327.59;5109726;28;20081;-71
2021/06/27 05:53:13;;;;;;;9.73;3.08;;;;;;;22.69;59.18;99327.47;5107607;28;20061;-71
2021/06/27 05:55:39;;;;;;;11.52;3.33;;;;;;;22.73;57.55;99322.53;5107085;28;20019;-71
2021/06/27 05:58:05;;;;;;;18.58;4.30;;;;;;;22.95;58.75;99325.19;5103711;28;20048;-71
2021/06/27 06:00:30;;;;;;;10.82;3.72;;;;;;;23.12;58.78;99324.16;5100763;28;20039;-72
2021/06/27 06:02:56;;;;;;;10.88;2.83;;;;;;;23.09;58.56;99319.31;5103905;28;20016;-71
2021/06/27 06:05:22;;;;;;;7.75;2.63;;;;;;;23.26;58.88;99316.66;5101001;27;20034;-72
2021/06/27 06:07:47;;;;;;;19.00;3.30;;;;;;;23.46;58.54;99316.06;5098739;28;20120;-72
2021/06/27 06:10:12;;;;;;;12.93;3.67;;;;;;;23.53;58.43;99319.63;5090820;28;20448;-72
2021/06/27 06:12:38;;;;;;;8.30;3.28;;;;;;;23.64;57.95;99316.63;5093636;28;20024;-71
2021/06/27 06:15:04;;;;;;;9.65;3.13;;;;;;;23.71;55.09;99321.41;5101123;28;20490;-71
2021/06/27 06:17:30;;;;;;;12.02;2.83;;;;;;;23.84;55.64;99324.50;5108130;28;20088;-71
2021/06/27 06:19:55;;;;;;;25.05;4.22;;;;;;;23.86;57.12;99329.81;5094950;28;20047;-71
2021/06/27 06:22:22;;;;;;;13.50;3.67;;;;;;;24.13;55.01;99335.53;5106115;28;20033;-71
2021/06/27 06:24:48;;;;;;;14.68;3.33;;;;;;;24.29;56.00;99336.94;5096595;28;20058;-71
2021/06/27 06:27:13;;;;;;;9.45;3.10;;;;;;;24.25;54.23;99332.09;5125192;27;20461;-71
2021/06/27 06:29:39;;;;;;;10.77;3.05;;;;;;;24.38;54.65;99332.28;5102481;28;20035;-71
2021/06/27 06:32:05;;;;;;;18.02;4.60;;;;;;;24.47;53.69;99326.00;5100336;27;20103;-71
2021/06/27 06:34:30;;;;;;;9.45;3.78;;;;;;;24.63;53.28;99319.59;5100048;28;20067;-72
2021/06/27 06:36:57;;;;;;;18.23;3.78;;;;;;;24.72;54.61;99321.09;5095036;28;20055;-72
2021/06/27 06:39:22;;;;;;;19.60;3.53;;;;;;;24.90;53.61;99326.53;5095112;28;20398;-72
2021/06/27 06:41:48;;;;;;;12.63;3.67;;;;;;;24.95;53.35;99320.28;5104406;28;20032;-71
2021/06/27 06:44:14;;;;;;;23.25;3.97;;;;;;;25.04;53.30;99316.84;5105390;28;20076;-71
2021/06/27 06:46:40;;;;;;;21.75;3.92;;;;;;;25.17;52.64;99314.16;5111019;28;20020;-71
2021/06/27 06:49:06;;;;;;;9.77;3.58;;;;;;;25.21;52.68;99312.81;5110979;28;20122;-72
2021/06/27 06:51:31;;;;;;;12.65;4.00;;;;;;;25.44;52.99;99318.91;5106340;28;20110;-72
2021/06/27 06:53:57;;;;;;;13.30;3.83;;;;;;;25.57;53.16;99319.09;5107351;28;20392;-71
2021/06/27 06:56:22;;;;;;;12.70;4.03;;;;;;;25.74;51.53;99317.88;5092409;28;20036;-72
2021/06/27 06:58:48;;;;;;;16.48;3.65;;;;;;;25.79;52.27;99325.13;5106525;28;20084;-71
2021/06/27 07:01:15;;;;;;;10.40;3.17;;;;;;;25.73;52.20;99318.34;5097604;27;20039;-71
2021/06/27 07:03:40;;;;;;;15.43;4.07;;;;;;;25.86;50.88;99315.56;5096143;28;20035;-71
2021/06/27 07:06:06;;;;;;;18.67;4.47;;;;;;;26.02;50.56;99317.66;5111752;28;20428;-72
2021/06/27 07:08:31;;;;;;;19.17;4.63;;;;;;;26.11;50.48;99317.03;5106191;28;20023;-71
2021/06/27 07:10:57;;;;;;;14.07;3.75;;;;;;;26.33;50.45;99317.38;5106391;27;20032;-71
2021/06/27 07:13:23;;;;;;;16.88;4.30;;;;;;;26.48;49.82;99312.88;5091180;28;20066;-71
2021/06/27 07:15:48;;;;;;;13.13;3.95;;;;;;;26.55;48.01;99311.09;5090786;28;20059;-72
2021/06/27 07:18:14;;;;;;;12.35;4.18;;;;;;;26.60;48.73;99313.41;5096155;28;20084;-71
2021/06/27 07:20:40;;;;;;;15.93;3.78;;;;;;;26.80;47.87;99318.22;5105294;28;20156;-71
2021/06/27 07:23:05;;;;;;;31.63;6.05;;;;;;;26.90;46.78;99315.09;5100226;28;20084;-71
2021/06/27 07:25:31;;;;;;;23.60;3.58;;;;;;;27.00;46.65;99318.91;5104959;28;20031;-70
2021/06/27 07:27:57;;;;;;;13.00;4.07;;;;;;;27.03;46.07;99312.28;5110359;27;20054;-71
2021/06/27 07:30:22;;;;;;;8.52;3.83;;;;;;;27.15;45.34;99312.75;5107071;28;20043;-71
2021/06/27 07:32:48;;;;;;;11.75;3.10;;;;;;;27.24;47.95;99315.00;5097867;28;20535;-71
2021/06/27 07:35:13;;;;;;;17.13;4.32;;;;;;;27.17;45.19;99311.06;5091718;28;20044;-71
2021/06/27 07:37:39;;;;;;;13.73;4.18;;;;;;;27.31;46.22;99309.03;5118740;27;20092;-71
2021/06/27 07:40:05;;;;;;;17.98;4.15;;;;;;;27.38;46.16;99313.75;5111537;28;20028;-71
2021/06/27 07:42:31;;;;;;;18.33;4.13;;;;;;;27.47;46.50;99305.28;5116227;27;20028;-71
2021/06/27 07:44:57;;;;;;;8.70;2.90;;;;;;;27.57;46.15;99295.56;5092103;28;20027;-72
2021/06/27 07:47:22;;;;;;;11.45;3.75;;;;;;;27.74;47.63;99310.66;5102571;27;20032;-74
2021/06/27 07:49:53;;;;;;;14.40;4.45;;;;;;;27.86;45.44;99303.28;5107891;28;20434;-71
2021/06/27 07:52:19;;;;;;;8.00;3.42;;;;;;;27.86;46.23;99303.28;5099198;28;20028;-74
2021/06/27 07:54:44;;;;;;;21.77;3.90;;;;;;;28.07;45.42;99303.09;5105370;28;20012;-71
2021/06/27 07:57:10;;;;;;;14.23;3.90;;;;;;;28.21;45.28;99311.25;5103740;27;20023;-73
2021/06/27 07:59:35;;;;;;;20.38;4.45;;;;;;;28.22;46.43;99312.06;5103400;28;20038;-73
2021/06/27 08:02:01;;;;;;;12.02;4.07;;;;;;;28.34;44.48;99310.44;5109813;28;20410;-73
2021/06/27 08:04:26;;;;;;;6.13;3.33;;;;;;;28.45;44.61;99313.75;5099632;27;20486;-73
2021/06/27 08:06:52;;;;;;;11.57;3.78;;;;;;;28.28;43.94;99307.34;5105471;27;20048;-72
2021/06/27 08:09:19;;;;;;;13.55;4.32;;;;;;;28.45;43.67;99313.75;5089660;28;20055;-75
2021/06/27 08:11:45;;;;;;;13.15;4.57;;;;;;;28.46;45.14;99315.38;5092654;28;20538;-75
2021/06/27 08:14:10;;;;;;;9.75;3.38;;;;;;;28.59;42.84;99312.44;5094696;28;20028;-73
2021/06/27 08:16:37;;;;;;;16.38;3.67;;;;;;;28.64;44.87;99314.75;5105315;28;20031;-74
2021/06/27 08:19:03;;;;;;;14.68;4.88;;;;;;;28.73;43.59;99306.22;5091643;28;20028;-71
2021/06/27 08:21:28;;;;;;;7.85;3.67;;;;;;;28.83;43.73;99301.38;5103183;28;20406;-72
2021/06/27 08:23:54;;;;;;;12.30;3.53;;;;;;;28.92;43.67;99312.16;5102102;27;20024;-72
2021/06/27 08:26:22;;;;;;;19.05;5.53;;;;;;;29.00;43.77;99302.00;5091202;28;20036;-73
2021/06/27 08:28:48;;;;;;;14.88;4.28;;;;;;;29.13;43.18;99299.06;5126297;27;20020;-71
2021/06/27 08:31:14;;;;;;;9.68;4.25;;;;;;;29.15;42.56;99304.34;5105361;28;20430;-72
2021/06/27 08:33:39;;;;;;;5.78;3.60;;;;;;;29.22;41.66;99304.09;5107187;27;20055;-71
2021/06/27 08:36:05;;;;;;;13.18;3.92;;;;;;;29.27;40.21;99300.59;5094909;28;20059;-72
2021/06/27 08:38:31;;;;;;;24.67;5.47;;;;;;;29.27;41.05;99291.19;5097067;28;20035;-75
2021/06/27 08:40:57;;;;;;;25.88;4.13;;;;;;;29.30;41.84;99290.22;5106877;28;20040;-71
2021/06/27 08:43:29;;;;;;;24.88;4.95;;;;;;;29.67;39.46;99284.72;5112630;27;20031;-77
2021/06/27 08:45:55;;;;;;;10.98;3.50;;;;;;;29.53;40.04;99294.72;5111330;28;20035;-71
2021/06/27 08:48:23;;;;;;;11.15;4.10;;;;;;;29.55;39.34;99292.16;5111425;28;20030;-71
2021/06/27 08:50:50;;;;;;;11.65;4.13;;;;;;;29.74;40.24;99288.56;5108633;27;20092;-72
2021/06/27 08:53:16;;;;;;;12.93;4.35;;;;;;;29.89;39.19;99283.06;5109239;28;20031;-73
2021/06/27 08:55:42;;;;;;;9.07;3.22;;;;;;;29.77;39.17;99281.91;5100090;28;20191;-77
2021/06/27 08:58:09;;;;;;;13.38;4.30;;;;;;;29.98;39.21;99280.22;5123168;27;20145;-79
2021/06/27 09:00:35;;;;;;;14.05;3.88;;;;;;;29.92;38.01;99282.09;5124141;27;20020;-74
2021/06/27 09:03:01;;;;;;;23.48;3.78;;;;;;;30.01;37.91;99284.22;5123080;27;20038;-72
2021/06/27 09:05:30;;;;;;;13.18;4.38;;;;;;;29.97;38.95;99278.63;5130154;27;20031;-71
2021/06/27 09:08:12;;;;;;;7.35;3.55;;;;;;;30.23;39.21;99272.63;5128789;27;20019;-77
2021/06/27 09:10:38;;;;;;;12.65;5.03;;;;;;;30.34;38.72;99272.97;5127385;27;20590;-77
2021/06/27 09:13:03;;;;;;;8.07;3.80;;;;;;;30.36;37.55;99270.41;5109747;27;20114;-71
2021/06/27 09:15:48;;;;;;;14.20;3.60;;;;;;;30.42;35.21;99278.47;5102129;28;20031;-71
2021/06/27 09:18:14;;;;;;;11.68;3.47;;;;;;;30.53;37.07;99270.16;5102268;28;20073;-71
2021/06/27 09:20:41;;;;;;;11.27;3.15;;;;;;;30.72;37.31;99273.06;5106313;28;20123;-79
2021/06/27 09:23:08;;;;;;;9.15;3.35;;;;;;;31.00;37.27;99270.16;5114103;28;20051;-76
2021/06/27 09:25:34;;;;;;;12.50;4.35;;;;;;;31.22;37.87;99259.28;5104387;28;20044;-74
2021/06/27 09:28:14;;;;;;;11.88;3.03;;;;;;;31.62;35.86;99256.63;5098653;28;20023;-72
2021/06/27 09:30:43;;;;;;;;;;;;;;;31.54;35.47;99259.03;5104154;28;20032;-72
2021/06/27 09:33:11;;;;;;;18.30;4.10;;;;;;;31.37;35.38;99261.47;5108242;28;20288;-74
2021/06/27 09:35:52;;;;;;;20.98;4.47;;;;;;;31.20;35.92;99261.81;5106194;28;20510;-76
2021/06/27 09:38:24;;;;;;;10.82;3.78;;;;;;;31.48;36.03;99261.78;5099604;28;20500;-80
2021/06/27 09:40:58;;;;;;;16.95;4.47;;;;;;;31.52;37.41;99262.44;5106034;28;20091;-75
2021/06/27 09:43:24;;;;;;;16.38;4.28;;;;;;;31.62;34.45;99259.50;5110815;28;20111;-72
2021/06/27 09:46:12;;;;;;;12.05;3.80;;;;;;;31.83;42.20;99249.03;5107341;27;20043;-73
2021/06/27 09:48:59;;;;;;;13.90;4.38;;;;;;;32.30;39.08;99248.78;5089845;28;20024;-73
2021/06/27 09:51:28;;;;;;;9.35;3.65;;;;;;;32.07;34.06;99256.94;5090901;28;20032;-76
2021/06/27 09:53:55;;;;;;;11.68;3.78;;;;;;;31.81;34.56;99247.91;5094606;28;20091;-76
2021/06/27 09:56:24;;;;;;;7.03;3.22;;;;;;;32.11;34.38;99248.09;5100165;28;20111;-74
2021/06/27 09:59:05;;;;;;;12.23;3.53;;;;;;;32.17;38.62;99240.31;5107820;28;20020;-75
2021/06/27 10:01:32;;;;;;;11.95;3.72;;;;;;;32.06;32.74;99241.66;5092848;28;20078;-75
2021/06/27 10:04:01;;;;;;;16.45;3.88;;;;;;;31.96;32.57;99239.31;5105678;27;20046;-75
2021/06/27 10:06:34;;;;;;;14.13;3.92;;;;;;;32.11;33.39;99236.53;5099927;28;20062;-79
2021/06/27 10:09:21;;;;;;;7.50;3.50;;;;;;;32.21;35.34;99233.06;5089474;28;20386;-76
2021/06/27 10:12:14;;;;;;;16.40;4.28;;;;;;;32.60;39.74;99234.44;5102986;27;20039;-80
2021/06/27 10:14:39;;;;;;;11.10;3.83;;;;;;;32.54;34.57;99225.63;5101748;28;20051;-78
2021/06/27 10:17:05;;;;;;;20.70;5.50;;;;;;;32.65;38.48;99227.97;5109622;28;20527;-82
2021/06/27 10:19:31;;;;;;;8.18;3.28;;;;;;;32.73;33.68;99223.38;5110630;28;20115;-78
2021/06/27 10:22:00;;;;;;;15.10;4.43;;;;;;;32.76;31.89;99219.53;5109748;27;20055;-76
2021/06/27 10:24:27;;;;;;;10.02;3.28;;;;;;;32.45;32.18;99220.72;5130886;27;20054;-75
2021/06/27 10:26:53;;;;;;;12.48;3.42;;;;;;;32.67;33.14;99227.47;5120995;27;20113;-76
2021/06/27 10:29:21;;;;;;;8.82;3.78;;;;;;;32.59;31.30;99210.50;5093859;28;20035;-78
2021/06/27 10:31:49;;;;;;;8.68;3.47;;;;;;;32.48;31.87;99213.94;5106415;28;20045;-79
2021/06/27 10:34:15;;;;;;;10.50;4.00;;;;;;;32.66;32.99;99212.22;5101438;28;20051;-75
2021/06/27 10:36:44;;;;;;;10.80;3.47;;;;;;;32.73;31.44;99203.13;5099169;28;20477;-82
2021/06/27 10:39:14;;;;;;;9.25;3.30;;;;;;;32.50;30.54;99210.56;5093151;28;20145;-75
2021/06/27 10:41:51;;;;;;;8.50;3.80;;;;;;;32.42;31.41;99200.66;5107624;28;20429;-75
2021/06/27 10:44:19;;;;;;;18.30;4.60;;;;;;;32.55;30.84;99204.06;5102024;28;20066;-78
2021/06/27 10:46:53;;;;;;;15.13;3.95;;;;;;;32.67;30.66;99198.53;5100501;28;20035;-77
2021/06/27 10:49:31;;;;;;;9.10;3.65;;;;;;;32.69;29.79;99196.75;5111750;28;20492;-78
2021/06/27 10:51:56;;;;;;;8.32;2.83;;;;;;;32.83;29.88;99200.16;5103910;28;20030;-79
2021/06/27 10:54:22;;;;;;;10.18;3.38;;;;;;;32.93;29.83;99200.88;5105410;28;20122;-77
2021/06/27 10:56:52;;;;;;;14.88;4.45;;;;;;;32.91;29.80;99199.28;5102167;28;20019;-76
2021/06/27 10:59:35;;;;;;;;;;;;;;;32.87;30.52;99201.56;5114152;27;20387;-76
2021/06/27 11:02:22;;;;;;;10.60;4.82;;;;;;;32.93;30.37;99198.00;5103581;28;19965;-77
2021/06/27 11:04:49;;;;;;;10.45;4.15;;;;;;;33.15;30.20;99186.81;5098628;28;20024;-77
2021/06/27 11:07:34;;;;;;;10.27;3.53;;;;;;;33.26;30.20;99185.41;5100637;28;20166;-76
2021/06/27 11:10:17;;;;;;;10.63;4.10;;;;;;;33.38;31.19;99177.72;5104703;28;20047;-76
2021/06/27 11:12:58;;;;;;;15.90;3.50;;;;;;;33.56;29.06;99182.53;5105817;28;20473;-77
2021/06/27 11:15:32;;;;;;;10.90;3.85;;;;;;;33.59;29.55;99176.50;5100918;28;20036;-76
2021/06/27 11:18:03;;;;;;;13.48;3.90;;;;;;;33.71;29.16;99162.19;5100299;28;20024;-75
2021/06/27 11:20:33;;;;;;;11.30;3.33;;;;;;;33.95;30.65;99159.13;5116933;27;20032;-76
2021/06/27 11:23:00;;;;;;;14.05;3.97;;;;;;;34.04;29.56;99163.22;5107899;28;20020;-76
2021/06/27 11:25:37;;;;;;;10.02;4.15;;;;;;;34.33;29.00;99161.47;5104605;28;20529;-77
2021/06/27 11:28:21;;;;;;;14.43;4.38;;;;;;;34.27;28.48;99149.81;5106290;27;20416;-76